createdAt,value
2022-08-19T00:01:37.774Z,20.80
2022-08-19T00:04:07.714Z,20.80
2022-08-19T00:06:36.399Z,20.80
2022-08-19T00:09:06.647Z,20.80
2022-08-19T00:11:34.176Z,20.80
2022-08-19T00:14:00.990Z,20.70
2022-08-19T00:16:27.875Z,20.70
2022-08-19T00:18:56.370Z,20.50
2022-08-19T00:21:25.670Z,20.50
2022-08-19T00:23:52.917Z,20.50
2022-08-19T00:26:20.150Z,20.50
2022-08-19T00:28:47.999Z,20.40
2022-08-19T00:31:14.854Z,20.40
2022-08-19T00:33:41.682Z,20.40
2022-08-19T00:36:10.363Z,20.40
2022-08-19T00:38:40.171Z,20.40
2022-08-19T00:41:07.869Z,20.30
2022-08-19T00:43:35.150Z,20.30
2022-08-19T00:46:05.528Z,20.30
2022-08-19T00:48:34.564Z,20.30
2022-08-19T00:51:02.354Z,20.30
2022-08-19T00:53:32.262Z,20.30
2022-08-19T00:56:01.271Z,20.20
2022-08-19T00:58:31.087Z,20.30
2022-08-19T01:00:57.922Z,20.30
2022-08-19T01:03:25.333Z,20.30
2022-08-19T01:05:54.529Z,20.20
2022-08-19T01:08:21.673Z,20.20
2022-08-19T01:10:52.415Z,20.20
2022-08-19T01:13:24.475Z,20.20
2022-08-19T01:16:02.032Z,20.20
2022-08-19T01:18:29.870Z,20.20
2022-08-19T01:21:02.378Z,20.10
2022-08-19T01:23:43.399Z,20.00
2022-08-19T01:26:17.721Z,20.00
2022-08-19T01:28:46.798Z,20.10
2022-08-19T01:31:27.129Z,20.00
2022-08-19T01:33:57.506Z,19.90
2022-08-19T01:36:42.856Z,20.00
2022-08-19T01:39:14.369Z,19.90
2022-08-19T01:41:41.541Z,19.90
2022-08-19T01:44:17.395Z,20.00
2022-08-19T01:46:48.458Z,19.80
2022-08-19T01:49:18.678Z,19.90
2022-08-19T01:51:45.745Z,19.80
2022-08-19T01:54:14.364Z,19.80
2022-08-19T01:57:07.731Z,19.80
2022-08-19T01:59:37.398Z,19.80
2022-08-19T02:02:08.454Z,19.90
2022-08-19T02:04:36.034Z,19.80
2022-08-19T02:07:02.982Z,19.80
2022-08-19T02:09:31.219Z,19.80
2022-08-19T02:11:58.347Z,19.80
2022-08-19T02:14:25.341Z,19.80
2022-08-19T02:16:52.410Z,19.90
2022-08-19T02:19:19.262Z,19.80
2022-08-19T02:21:46.273Z,19.70
2022-08-19T02:24:13.332Z,19.80
2022-08-19T02:26:40.565Z,19.70
2022-08-19T02:29:08.758Z,19.70
2022-08-19T02:31:35.681Z,19.70
2022-08-19T02:34:03.800Z,19.70
2022-08-19T02:36:31.600Z,19.70
2022-08-19T02:38:58.595Z,19.70
2022-08-19T02:41:28.555Z,19.70
2022-08-19T02:44:23.020Z,19.70
2022-08-19T02:46:47.016Z,19.70
2022-08-19T02:49:15.964Z,19.80
2022-08-19T02:51:45.108Z,19.70
2022-08-19T02:54:13.487Z,19.70
2022-08-19T02:56:42.352Z,19.60
2022-08-19T02:59:11.158Z,19.60
2022-08-19T03:01:41.976Z,19.60
2022-08-19T03:04:11.096Z,19.50
2022-08-19T03:06:39.472Z,19.50
2022-08-19T03:09:06.365Z,19.50
2022-08-19T03:11:34.023Z,19.50
2022-08-19T03:14:01.879Z,19.50
2022-08-19T03:16:33.141Z,19.50
2022-08-19T03:19:01.273Z,19.50
2022-08-19T03:21:33.057Z,19.50
2022-08-19T03:24:03.357Z,19.50
2022-08-19T03:26:30.929Z,19.50
2022-08-19T03:28:59.038Z,19.50
2022-08-19T03:31:44.940Z,19.50
2022-08-19T03:34:27.065Z,19.50
2022-08-19T03:37:01.568Z,19.50
2022-08-19T03:39:29.012Z,19.50
2022-08-19T03:42:29.214Z,19.40
2022-08-19T03:44:50.268Z,19.50
2022-08-19T03:47:17.868Z,19.40
2022-08-19T03:49:45.491Z,19.40
2022-08-19T03:52:12.393Z,19.40
2022-08-19T03:54:40.233Z,19.40
2022-08-19T03:57:07.687Z,19.40
2022-08-19T03:59:36.933Z,19.40
2022-08-19T04:02:10.221Z,19.40
2022-08-19T04:04:39.490Z,19.40
2022-08-19T04:07:07.211Z,19.40
2022-08-19T04:09:35.719Z,19.50
2022-08-19T04:12:03.061Z,19.40
2022-08-19T04:14:33.351Z,19.40
2022-08-19T04:17:01.675Z,19.50
2022-08-19T04:19:31.105Z,19.50
2022-08-19T04:21:58.258Z,19.40
2022-08-19T04:24:25.767Z,19.50
2022-08-19T04:26:52.998Z,19.40
2022-08-19T04:29:26.252Z,19.50
2022-08-19T04:31:56.475Z,19.60
2022-08-19T04:34:25.339Z,19.50
2022-08-19T04:36:54.757Z,19.50
2022-08-19T04:39:49.151Z,19.50
2022-08-19T04:42:36.066Z,19.60
2022-08-19T04:45:05.352Z,19.60
2022-08-19T04:47:46.939Z,19.60
2022-08-19T04:50:15.820Z,19.70
2022-08-19T04:52:45.825Z,19.70
2022-08-19T04:55:13.620Z,19.70
2022-08-19T04:57:41.145Z,19.80
2022-08-19T05:00:09.994Z,19.80
2022-08-19T05:02:37.302Z,19.80
2022-08-19T05:05:04.661Z,19.90
2022-08-19T05:07:31.791Z,19.80
2022-08-19T05:09:59.257Z,19.90
2022-08-19T05:12:29.099Z,19.90
2022-08-19T05:14:57.870Z,19.90
2022-08-19T05:17:27.961Z,20.00
2022-08-19T05:20:35.160Z,20.10
2022-08-19T05:23:02.645Z,20.00
2022-08-19T05:25:40.991Z,20.30
2022-08-19T05:28:08.506Z,20.50
2022-08-19T05:30:46.766Z,20.60
2022-08-19T05:33:14.270Z,20.50
2022-08-19T05:35:42.036Z,20.40
2022-08-19T05:38:09.260Z,20.40
2022-08-19T05:40:39.535Z,20.40
2022-08-19T05:43:08.832Z,20.40
2022-08-19T05:45:41.199Z,20.40
2022-08-19T05:48:08.065Z,20.30
2022-08-19T05:50:37.338Z,20.30
2022-08-19T05:53:04.703Z,20.30
2022-08-19T05:55:32.441Z,20.30
2022-08-19T05:57:59.286Z,20.30
2022-08-19T06:00:26.204Z,20.40
2022-08-19T06:02:53.210Z,20.40
2022-08-19T06:05:21.060Z,20.40
2022-08-19T06:07:48.062Z,20.30
2022-08-19T06:10:14.982Z,20.30
2022-08-19T06:12:41.847Z,20.40
2022-08-19T06:15:14.442Z,20.30
2022-08-19T06:17:42.721Z,20.40
2022-08-19T06:20:12.908Z,20.50
2022-08-19T06:22:44.946Z,20.50
2022-08-19T06:25:13.851Z,20.50
2022-08-19T06:27:58.639Z,20.60
2022-08-19T06:30:28.549Z,20.60
2022-08-19T06:32:55.407Z,20.70
2022-08-19T06:35:22.442Z,20.70
2022-08-19T06:37:49.291Z,20.70
2022-08-19T06:40:16.293Z,20.80
2022-08-19T06:42:52.288Z,20.80
2022-08-19T06:45:24.802Z,20.70
2022-08-19T06:47:56.785Z,20.80
2022-08-19T06:50:25.158Z,20.90
2022-08-19T06:52:53.034Z,20.80
2022-08-19T06:55:20.188Z,20.90
2022-08-19T06:57:49.090Z,20.90
2022-08-19T07:00:16.715Z,21.00
2022-08-19T07:02:49.631Z,21.00
2022-08-19T07:05:23.231Z,21.10
2022-08-19T07:07:51.013Z,21.10
2022-08-19T07:10:18.418Z,21.20
2022-08-19T07:12:45.560Z,21.20
2022-08-19T07:15:13.132Z,21.30
2022-08-19T07:17:41.783Z,21.30
2022-08-19T07:20:10.938Z,21.30
2022-08-19T07:22:39.329Z,21.40
2022-08-19T07:25:08.122Z,21.50
2022-08-19T07:27:35.432Z,21.50
2022-08-19T07:30:03.494Z,21.50
2022-08-19T07:32:31.788Z,21.50
2022-08-19T07:35:01.534Z,21.50
2022-08-19T07:37:33.058Z,21.60
2022-08-19T07:40:02.311Z,21.80
2022-08-19T07:42:30.779Z,21.90
2022-08-19T07:44:59.436Z,21.80
2022-08-19T07:47:49.995Z,22.00
2022-08-19T07:50:15.275Z,22.00
2022-08-19T07:52:44.426Z,22.10
2022-08-19T07:55:42.684Z,22.10
2022-08-19T07:58:03.530Z,22.20
2022-08-19T08:00:31.960Z,22.20
2022-08-19T08:02:58.838Z,22.20
2022-08-19T08:05:44.504Z,22.20
2022-08-19T08:08:31.415Z,22.00
2022-08-19T08:11:00.002Z,21.90
2022-08-19T08:13:27.907Z,21.90
2022-08-19T08:15:56.150Z,21.80
2022-08-19T08:18:27.851Z,21.80
2022-08-19T08:20:56.078Z,21.80
2022-08-19T08:23:23.514Z,21.90
2022-08-19T08:25:50.536Z,22.00
2022-08-19T08:28:18.893Z,22.30
2022-08-19T08:30:48.392Z,22.40
2022-08-19T08:33:33.012Z,22.50
2022-08-19T08:36:12.357Z,22.60
2022-08-19T08:38:41.263Z,22.50
2022-08-19T08:41:22.173Z,22.30
2022-08-19T08:43:52.934Z,22.40
2022-08-19T08:46:35.313Z,22.40
2022-08-19T08:49:32.772Z,22.40
2022-08-19T08:52:08.183Z,22.30
2022-08-19T08:54:48.846Z,22.20
2022-08-19T08:57:40.586Z,22.30
2022-08-19T09:00:15.858Z,22.30
2022-08-19T09:02:43.886Z,22.40
2022-08-19T09:05:16.644Z,22.50
2022-08-19T09:08:09.692Z,22.60
2022-08-19T09:10:44.626Z,22.60
2022-08-19T09:13:20.625Z,22.50
2022-08-19T09:16:12.364Z,22.50
2022-08-19T09:18:53.554Z,22.50
2022-08-19T09:21:25.967Z,22.50
2022-08-19T09:23:58.721Z,22.60
2022-08-19T09:26:47.185Z,22.80
2022-08-19T09:29:15.290Z,22.90
2022-08-19T09:31:42.157Z,23.00
2022-08-19T09:34:09.419Z,23.00
2022-08-19T09:36:50.425Z,23.10
2022-08-19T09:39:18.170Z,23.10
2022-08-19T09:41:47.609Z,23.10
2022-08-19T09:44:16.605Z,23.10
2022-08-19T09:46:44.971Z,23.00
2022-08-19T09:49:11.836Z,22.90
2022-08-19T09:51:40.370Z,22.80
2022-08-19T09:54:07.923Z,22.90
2022-08-19T09:56:38.352Z,22.80
2022-08-19T09:59:05.268Z,22.90
2022-08-19T10:01:33.545Z,23.10
2022-08-19T10:04:03.555Z,23.10
2022-08-19T10:06:46.369Z,23.10
2022-08-19T10:09:15.052Z,23.10
2022-08-19T10:11:52.567Z,23.00
2022-08-19T10:14:24.603Z,23.00
2022-08-19T10:16:52.491Z,23.10
2022-08-19T10:19:25.634Z,23.20
2022-08-19T10:21:54.229Z,23.10
2022-08-19T10:24:21.468Z,23.10
2022-08-19T10:26:55.806Z,22.90
2022-08-19T10:29:32.684Z,22.80
2022-08-19T10:32:09.680Z,22.70
2022-08-19T10:34:48.069Z,22.60
2022-08-19T10:37:29.069Z,22.40
2022-08-19T10:39:58.585Z,22.50
2022-08-19T10:42:25.529Z,22.50
2022-08-19T10:44:52.575Z,22.40
2022-08-19T10:47:25.852Z,22.30
2022-08-19T10:50:13.021Z,22.40
2022-08-19T10:52:50.510Z,22.40
2022-08-19T10:55:41.883Z,22.40
2022-08-19T10:58:24.660Z,22.30
2022-08-19T11:00:56.172Z,22.40
2022-08-19T11:03:24.434Z,22.40
2022-08-19T11:06:05.204Z,22.50
2022-08-19T11:08:32.443Z,22.50
2022-08-19T11:11:02.130Z,22.50
2022-08-19T11:13:34.909Z,22.50
2022-08-19T11:16:07.613Z,22.50
2022-08-19T11:18:37.130Z,22.50
2022-08-19T11:21:33.187Z,22.50
2022-08-19T11:24:03.380Z,22.50
2022-08-19T11:26:31.767Z,22.40
2022-08-19T11:29:00.702Z,22.40
2022-08-19T11:31:34.499Z,22.40
2022-08-19T11:34:04.098Z,22.50
2022-08-19T11:36:33.359Z,22.50
2022-08-19T11:39:01.183Z,22.40
2022-08-19T11:41:28.535Z,22.40
2022-08-19T11:43:56.145Z,22.40
2022-08-19T11:46:25.388Z,22.40
2022-08-19T11:48:53.077Z,22.40
2022-08-19T11:51:23.242Z,22.40
2022-08-19T11:53:51.600Z,22.30
2022-08-19T11:56:19.720Z,22.40
2022-08-19T11:58:47.128Z,22.40
2022-08-19T12:01:16.939Z,22.50
2022-08-19T12:03:45.992Z,22.50
2022-08-19T12:06:16.865Z,22.50
2022-08-19T12:08:45.178Z,22.60
2022-08-19T12:11:14.606Z,22.60
2022-08-19T12:13:42.580Z,22.70
2022-08-19T12:16:16.156Z,22.70
2022-08-19T12:18:51.821Z,22.80
2022-08-19T12:21:22.948Z,22.90
2022-08-19T12:23:55.493Z,23.00
2022-08-19T12:26:23.542Z,23.20
2022-08-19T12:28:51.031Z,23.20
2022-08-19T12:31:20.413Z,23.20
2022-08-19T12:33:47.995Z,23.10
2022-08-19T12:36:18.390Z,23.10
2022-08-19T12:38:45.498Z,23.10
2022-08-19T12:41:15.152Z,23.20
2022-08-19T12:43:42.811Z,23.20
2022-08-19T12:46:11.447Z,23.20
2022-08-19T12:48:40.218Z,23.20
2022-08-19T12:51:11.070Z,23.30
2022-08-19T12:53:39.348Z,23.40
2022-08-19T12:56:12.292Z,23.40
2022-08-19T12:58:40.290Z,23.40
2022-08-19T13:01:15.258Z,23.20
2022-08-19T13:03:46.454Z,23.20
2022-08-19T13:06:13.772Z,23.10
2022-08-19T13:08:46.585Z,23.10
2022-08-19T13:11:16.448Z,23.10
2022-08-19T13:13:45.027Z,23.20
2022-08-19T13:16:13.392Z,23.20
2022-08-19T13:18:42.108Z,23.10
2022-08-19T13:21:14.095Z,23.10
2022-08-19T13:23:41.981Z,23.20
2022-08-19T13:26:10.722Z,23.20
2022-08-19T13:28:56.240Z,23.30
2022-08-19T13:31:43.954Z,23.50
2022-08-19T13:34:11.695Z,23.40
2022-08-19T13:36:39.451Z,23.30
2022-08-19T13:39:08.580Z,23.20
2022-08-19T13:41:36.272Z,23.30
2022-08-19T13:44:04.069Z,23.20
2022-08-19T13:46:31.507Z,23.10
2022-08-19T13:48:58.473Z,23.10
2022-08-19T13:51:25.366Z,23.00
2022-08-19T13:53:52.426Z,22.90
2022-08-19T13:56:24.145Z,22.90
2022-08-19T13:58:54.278Z,22.90
2022-08-19T14:01:24.560Z,22.80
2022-08-19T14:03:52.325Z,22.80
2022-08-19T14:06:19.406Z,22.70
2022-08-19T14:08:47.146Z,22.80
2022-08-19T14:11:14.634Z,22.80
2022-08-19T14:13:42.015Z,22.90
2022-08-19T14:16:13.769Z,23.10
2022-08-19T14:18:41.322Z,23.30
2022-08-19T14:21:08.930Z,23.50
2022-08-19T14:23:37.142Z,23.70
2022-08-19T14:26:06.540Z,23.80
2022-08-19T14:28:33.455Z,23.80
2022-08-19T14:31:00.579Z,24.00
2022-08-19T14:33:28.526Z,24.00
2022-08-19T14:36:00.014Z,24.10
2022-08-19T14:38:31.198Z,24.00
2022-08-19T14:41:11.116Z,24.00
2022-08-19T14:43:38.559Z,23.80
2022-08-19T14:46:06.159Z,23.80
2022-08-19T14:48:33.108Z,23.80
2022-08-19T14:50:59.922Z,23.70
2022-08-19T14:53:26.730Z,23.70
2022-08-19T14:55:53.588Z,23.60
2022-08-19T14:58:28.977Z,23.50
2022-08-19T15:01:00.257Z,23.40
2022-08-19T15:03:27.754Z,23.30
2022-08-19T15:05:54.793Z,23.30
2022-08-19T15:08:23.578Z,23.20
2022-08-19T15:10:50.693Z,23.20
2022-08-19T15:13:17.581Z,23.10
2022-08-19T15:15:45.498Z,23.00
2022-08-19T15:18:13.202Z,22.90
2022-08-19T15:20:40.845Z,22.80
2022-08-19T15:23:09.194Z,22.70
2022-08-19T15:25:36.618Z,22.70
2022-08-19T15:28:04.795Z,22.60
2022-08-19T15:30:31.687Z,22.60
2022-08-19T15:32:59.806Z,22.50
2022-08-19T15:35:27.206Z,22.50
2022-08-19T15:37:54.787Z,22.50
2022-08-19T15:40:23.441Z,22.50
2022-08-19T15:42:50.528Z,22.50
2022-08-19T15:45:19.415Z,22.50
2022-08-19T15:47:47.047Z,22.50
2022-08-19T15:50:18.018Z,22.50
2022-08-19T15:52:50.058Z,22.50
2022-08-19T15:55:32.756Z,22.50
2022-08-19T15:58:31.356Z,22.50
2022-08-19T16:01:20.343Z,22.50
2022-08-19T16:04:14.078Z,22.40
2022-08-19T16:06:50.482Z,22.50
2022-08-19T16:09:23.659Z,22.50
2022-08-19T16:12:01.773Z,22.50
2022-08-19T16:14:30.907Z,22.50
2022-08-19T16:16:58.184Z,22.40
2022-08-19T16:19:25.521Z,22.50
2022-08-19T16:21:54.503Z,22.40
2022-08-19T16:24:24.117Z,22.40
2022-08-19T16:26:51.233Z,22.40
2022-08-19T16:29:30.249Z,22.40
2022-08-19T16:32:06.435Z,22.40
2022-08-19T16:34:33.974Z,22.30
2022-08-19T16:37:01.693Z,22.20
2022-08-19T16:39:28.598Z,22.20
2022-08-19T16:41:55.530Z,22.20
2022-08-19T16:44:22.443Z,22.10
2022-08-19T16:46:58.901Z,22.10
2022-08-19T16:49:54.437Z,22.10
2022-08-19T16:52:18.858Z,22.00
2022-08-19T16:54:46.182Z,22.00
2022-08-19T16:57:13.446Z,21.90
2022-08-19T16:59:44.131Z,21.90
2022-08-19T17:02:21.189Z,21.80
2022-08-19T17:04:57.639Z,21.80
2022-08-19T17:07:27.796Z,21.80
2022-08-19T17:09:55.319Z,21.70
2022-08-19T17:12:29.037Z,21.70
2022-08-19T17:14:59.306Z,21.70
2022-08-19T17:17:29.089Z,21.60
2022-08-19T17:19:57.252Z,21.60
2022-08-19T17:22:24.410Z,21.60
2022-08-19T17:24:51.286Z,21.60
2022-08-19T17:27:19.794Z,21.50
2022-08-19T17:29:47.243Z,21.50
2022-08-19T17:32:15.320Z,21.50
2022-08-19T17:34:42.264Z,21.50
2022-08-19T17:37:09.110Z,21.50
2022-08-19T17:39:39.597Z,21.50
2022-08-19T17:42:08.092Z,21.50
2022-08-19T17:44:36.677Z,21.50
2022-08-19T17:47:04.401Z,21.50
2022-08-19T17:49:32.688Z,21.50
2022-08-19T17:52:00.465Z,21.50
2022-08-19T17:54:33.167Z,21.40
2022-08-19T17:57:01.366Z,21.50
2022-08-19T17:59:30.277Z,21.50
2022-08-19T18:01:57.917Z,21.50
2022-08-19T18:04:26.350Z,21.40
2022-08-19T18:06:55.560Z,21.40
2022-08-19T18:09:41.534Z,21.40
2022-08-19T18:12:11.873Z,21.40
2022-08-19T18:14:40.519Z,21.40
2022-08-19T18:17:10.980Z,21.40
2022-08-19T18:19:41.962Z,21.30
2022-08-19T18:22:12.122Z,21.30
2022-08-19T18:24:41.529Z,21.30
2022-08-19T18:27:08.615Z,21.30
2022-08-19T18:29:37.503Z,21.20
2022-08-19T18:32:04.694Z,21.20
2022-08-19T18:34:31.528Z,21.20
2022-08-19T18:36:58.378Z,21.20
2022-08-19T18:39:44.246Z,21.20
2022-08-19T18:42:35.256Z,21.10
2022-08-19T18:45:21.284Z,21.10
2022-08-19T18:48:06.642Z,21.10
2022-08-19T18:50:53.478Z,21.10
2022-08-19T18:53:20.360Z,21.10
2022-08-19T18:55:49.448Z,21.10
2022-08-19T18:58:16.351Z,21.10
2022-08-19T19:00:44.028Z,21.00
2022-08-19T19:03:11.704Z,21.10
2022-08-19T19:05:39.957Z,21.00
2022-08-19T19:08:07.885Z,21.10
2022-08-19T19:10:36.295Z,21.10
2022-08-19T19:13:03.348Z,21.00
2022-08-19T19:15:30.246Z,21.00
2022-08-19T19:17:57.370Z,21.00
2022-08-19T19:20:36.632Z,21.00
2022-08-19T19:23:04.187Z,20.90
2022-08-19T19:25:50.659Z,20.90
2022-08-19T19:28:29.312Z,20.90
2022-08-19T19:30:58.515Z,20.90
2022-08-19T19:33:27.007Z,20.90
2022-08-19T19:35:54.275Z,20.90
2022-08-19T19:38:21.087Z,20.90
2022-08-19T19:40:47.946Z,20.90
2022-08-19T19:43:18.285Z,20.90
2022-08-19T19:45:47.368Z,20.90
2022-08-19T19:48:14.900Z,20.90
2022-08-19T19:50:45.328Z,20.80
2022-08-19T19:53:15.022Z,20.90
2022-08-19T19:55:42.919Z,20.80
2022-08-19T19:58:10.101Z,20.80
2022-08-19T20:00:37.005Z,20.80
2022-08-19T20:03:05.104Z,20.80
2022-08-19T20:05:31.930Z,20.80
2022-08-19T20:08:17.288Z,20.80
2022-08-19T20:10:46.871Z,20.80
2022-08-19T20:13:15.561Z,20.80
2022-08-19T20:15:43.583Z,20.80
2022-08-19T20:18:14.318Z,20.80
2022-08-19T20:20:42.115Z,20.80
2022-08-19T20:23:09.274Z,20.90
2022-08-19T20:25:38.218Z,20.80
2022-08-19T20:28:05.759Z,20.80
2022-08-19T20:30:33.297Z,20.80
2022-08-19T20:33:01.026Z,20.70
2022-08-19T20:35:27.888Z,20.70
2022-08-19T20:37:57.982Z,20.70
2022-08-19T20:40:29.570Z,20.70
2022-08-19T20:42:56.784Z,20.70
2022-08-19T20:45:32.876Z,20.70
2022-08-19T20:48:02.876Z,20.70
2022-08-19T20:50:35.186Z,20.70
2022-08-19T20:53:10.316Z,20.70
2022-08-19T20:55:37.206Z,20.70
2022-08-19T20:58:04.215Z,20.70
2022-08-19T21:00:31.250Z,20.60
2022-08-19T21:02:58.159Z,20.60
2022-08-19T21:05:30.229Z,20.60
2022-08-19T21:07:57.880Z,20.60
2022-08-19T21:10:26.123Z,20.70
2022-08-19T21:12:53.537Z,20.70
2022-08-19T21:15:20.424Z,20.70
2022-08-19T21:17:48.618Z,20.70
2022-08-19T21:20:15.651Z,20.70
2022-08-19T21:22:42.464Z,20.70
2022-08-19T21:25:09.496Z,20.70
2022-08-19T21:27:36.538Z,20.70
2022-08-19T21:30:05.197Z,20.70
2022-08-19T21:32:32.010Z,20.70
2022-08-19T21:34:58.843Z,20.70
2022-08-19T21:37:26.284Z,20.70
2022-08-19T21:39:54.679Z,20.70
2022-08-19T21:42:23.117Z,20.70
2022-08-19T21:44:50.010Z,20.70
2022-08-19T21:47:17.208Z,20.70
2022-08-19T21:49:44.166Z,20.70
2022-08-19T21:52:10.990Z,20.70
2022-08-19T21:54:38.693Z,20.70
2022-08-19T21:57:10.253Z,20.70
2022-08-19T21:59:43.789Z,20.70
2022-08-19T22:02:20.440Z,20.70
2022-08-19T22:04:48.247Z,20.60
2022-08-19T22:07:15.582Z,20.60
2022-08-19T22:09:43.969Z,20.60
2022-08-19T22:12:20.969Z,20.60
2022-08-19T22:14:47.835Z,20.50
2022-08-19T22:17:14.675Z,20.50
2022-08-19T22:19:41.527Z,20.50
2022-08-19T22:22:08.726Z,20.50
2022-08-19T22:24:35.545Z,20.50
2022-08-19T22:27:05.828Z,20.50
2022-08-19T22:29:36.510Z,20.50
2022-08-19T22:32:26.725Z,20.50
2022-08-19T22:34:51.803Z,20.50
2022-08-19T22:37:18.767Z,20.50
2022-08-19T22:39:45.662Z,20.50
2022-08-19T22:42:12.731Z,20.50
2022-08-19T22:44:39.648Z,20.40
2022-08-19T22:47:06.559Z,20.40
2022-08-19T22:49:33.446Z,20.40
2022-08-19T22:52:17.295Z,20.40
2022-08-19T22:54:50.312Z,20.30
2022-08-19T22:57:19.529Z,20.30
2022-08-19T22:59:51.746Z,20.30
2022-08-19T23:02:31.289Z,20.30
2022-08-19T23:05:02.457Z,20.30
2022-08-19T23:07:29.573Z,20.30
2022-08-19T23:09:56.637Z,20.30
2022-08-19T23:12:30.730Z,20.20
2022-08-19T23:15:05.830Z,20.20
2022-08-19T23:17:32.715Z,20.20
2022-08-19T23:19:59.909Z,20.20
2022-08-19T23:22:27.238Z,20.20
2022-08-19T23:24:56.124Z,20.20
2022-08-19T23:27:41.751Z,20.20
2022-08-19T23:30:27.538Z,20.20
2022-08-19T23:32:57.399Z,20.20
2022-08-19T23:35:25.501Z,20.20
2022-08-19T23:37:52.549Z,20.10
2022-08-19T23:40:21.857Z,20.20
2022-08-19T23:42:50.344Z,20.10
2022-08-19T23:45:23.890Z,20.20
2022-08-19T23:47:53.429Z,20.10
2022-08-19T23:50:21.683Z,20.10
2022-08-19T23:52:54.264Z,20.10
2022-08-19T23:55:25.382Z,20.20
2022-08-19T23:57:52.763Z,20.20
